Time;durP1;ratioP1;P1;durP2;ratioP2;P2;SDS_P1;SDS_P2;PMS_P1;PMS_P2;Temp;Humidity;BMP_temperature;BMP_pressure;BME280_temperature;BME280_humidity;BME280_pressure;Samples;Min_cycle;Max_cycle;Signal;HPM_P1;HPM_P2
2024/03/12 00:00:14;;;;;;;15.10;6.75;;;;;;;5.22;100.00;96265.38;4996928;28;20056;-71
2024/03/12 00:02:40;;;;;;;10.52;6.00;;;;;;;5.24;100.00;96269.34;4984164;28;20064;-71
2024/03/12 00:05:08;;;;;;;10.32;6.43;;;;;;;5.20;100.00;96263.00;4998820;28;20066;-72
2024/03/12 00:07:34;;;;;;;9.43;5.85;;;;;;;5.13;100.00;96271.75;5001849;28;20045;-71
2024/03/12 00:10:00;;;;;;;6.53;4.00;;;;;;;5.14;100.00;96272.53;5002698;28;20505;-70
2024/03/12 00:12:26;;;;;;;6.80;4.10;;;;;;;5.07;100.00;96275.03;4997214;28;20077;-70
2024/03/12 00:14:51;;;;;;;6.15;3.80;;;;;;;4.97;100.00;96268.94;4989141;28;20060;-71
2024/03/12 00:17:19;;;;;;;7.13;4.13;;;;;;;5.03;100.00;96276.84;4999650;28;20496;-70
2024/03/12 00:19:46;;;;;;;5.38;3.88;;;;;;;4.97;100.00;96277.06;4984040;28;20568;-70
2024/03/12 00:22:12;;;;;;;9.80;3.85;;;;;;;4.96;100.00;96283.63;4997443;28;20037;-70
2024/03/12 00:24:41;;;;;;;6.13;3.92;;;;;;;4.91;100.00;96281.13;5000334;28;20700;-69
2024/03/12 00:27:06;;;;;;;9.27;3.88;;;;;;;4.86;100.00;96286.81;4995550;28;20485;-70
2024/03/12 00:29:32;;;;;;;5.53;3.70;;;;;;;4.80;100.00;96290.88;4998456;28;20056;-70
2024/03/12 00:31:58;;;;;;;5.70;3.58;;;;;;;4.74;100.00;96290.31;5004239;28;20057;-70
2024/03/12 00:34:25;;;;;;;5.63;4.22;;;;;;;4.78;100.00;96299.34;4993713;28;20455;-70
2024/03/12 00:36:52;;;;;;;8.48;4.43;;;;;;;4.69;100.00;96304.09;5003370;28;20040;-70
2024/03/12 00:39:18;;;;;;;12.40;4.65;;;;;;;4.72;100.00;96294.50;4979336;28;20196;-69
2024/03/12 00:41:43;;;;;;;10.30;5.90;;;;;;;4.69;100.00;96300.59;5001314;28;20604;-67
2024/03/12 00:44:08;;;;;;;11.52;5.18;;;;;;;4.56;100.00;96306.00;5002084;28;20049;-67
2024/03/12 00:46:35;;;;;;;16.65;5.88;;;;;;;4.54;100.00;96310.19;5001780;28;20515;-67
2024/03/12 00:49:01;;;;;;;8.90;4.55;;;;;;;4.42;100.00;96310.16;5001503;28;20050;-68
2024/03/12 00:51:26;;;;;;;8.57;4.63;;;;;;;4.42;100.00;96308.22;4998573;28;20512;-69
2024/03/12 00:53:52;;;;;;;5.68;3.85;;;;;;;4.32;100.00;96314.88;5001434;28;20034;-69
2024/03/12 00:56:17;;;;;;;10.80;4.10;;;;;;;4.31;100.00;96313.28;4978541;28;20412;-68
2024/03/12 00:58:42;;;;;;;5.18;3.55;;;;;;;4.28;100.00;96307.75;5002234;28;20544;-69
2024/03/12 01:01:14;;;;;;;6.25;3.90;;;;;;;4.19;100.00;96315.97;4989306;28;20042;-69
2024/03/12 01:03:42;;;;;;;5.85;3.53;;;;;;;4.10;100.00;96320.69;5001548;28;20046;-69
2024/03/12 01:06:11;;;;;;;8.85;4.25;;;;;;;4.07;100.00;96318.63;4996430;28;20119;-67
2024/03/12 01:08:37;;;;;;;10.77;4.15;;;;;;;4.24;100.00;96318.47;5000776;28;20050;-68
2024/03/12 01:11:03;;;;;;;7.32;3.53;;;;;;;4.35;100.00;96324.25;4998244;28;20081;-68
2024/03/12 01:13:29;;;;;;;5.22;3.47;;;;;;;4.44;100.00;96318.75;5001141;28;20046;-67
2024/03/12 01:15:54;;;;;;;4.88;2.83;;;;;;;4.39;100.00;96327.88;5004825;28;20040;-68
2024/03/12 01:18:20;;;;;;;3.70;2.97;;;;;;;4.32;100.00;96328.44;5000433;28;20783;-68
2024/03/12 01:20:46;;;;;;;3.33;2.63;;;;;;;4.34;100.00;96334.31;5002806;28;20077;-68
2024/03/12 01:23:13;;;;;;;3.90;2.90;;;;;;;4.35;100.00;96335.88;4978298;28;20488;-68
2024/03/12 01:25:41;;;;;;;5.10;3.70;;;;;;;4.40;100.00;96338.38;5001004;28;20092;-67
2024/03/12 01:28:10;;;;;;;3.95;2.72;;;;;;;4.39;100.00;96346.84;4995687;28;20152;-67
2024/03/12 01:30:36;;;;;;;4.77;3.17;;;;;;;4.39;100.00;96349.56;4999076;28;20042;-68
2024/03/12 01:33:02;;;;;;;6.57;3.90;;;;;;;4.46;100.00;96346.31;4973660;28;20038;-69
2024/03/12 01:35:30;;;;;;;3.50;2.53;;;;;;;4.30;100.00;96344.22;4999094;28;20042;-69
2024/03/12 01:37:57;;;;;;;5.75;3.55;;;;;;;4.26;100.00;96346.03;5000442;28;20539;-69
2024/03/12 01:40:25;;;;;;;5.32;2.85;;;;;;;4.16;100.00;96346.44;4962309;28;20804;-68
2024/03/12 01:43:02;;;;;;;5.10;3.42;;;;;;;4.05;100.00;96348.75;5000453;28;20038;-68
2024/03/12 01:45:29;;;;;;;6.22;3.88;;;;;;;4.03;100.00;96364.56;4997522;28;20045;-68
2024/03/12 01:47:56;;;;;;;6.75;4.13;;;;;;;4.00;100.00;96357.13;4982864;28;20038;-68
2024/03/12 01:50:24;;;;;;;4.63;2.97;;;;;;;3.93;100.00;96356.88;4977204;28;20058;-68
2024/03/12 01:52:59;;;;;;;7.40;3.78;;;;;;;3.88;100.00;96367.91;5000795;28;20034;-69
2024/03/12 01:55:26;;;;;;;6.28;3.78;;;;;;;3.83;100.00;96366.16;4996382;28;20041;-68
2024/03/12 01:57:52;;;;;;;7.28;3.72;;;;;;;3.76;100.00;96369.44;5000507;28;20065;-69
2024/03/12 02:00:17;;;;;;;6.97;4.35;;;;;;;3.68;100.00;96361.38;4988415;28;20073;-68
2024/03/12 02:02:45;;;;;;;5.75;4.00;;;;;;;3.70;100.00;96367.25;4998040;28;20554;-68
2024/03/12 02:05:11;;;;;;;5.80;3.70;;;;;;;3.66;100.00;96366.31;4994706;28;20030;-68
2024/03/12 02:07:47;;;;;;;5.47;4.25;;;;;;;3.51;100.00;96371.19;5000335;28;20042;-68
2024/03/12 02:10:13;;;;;;;6.90;3.78;;;;;;;3.36;100.00;96375.25;4995443;28;20038;-69
2024/03/12 02:12:45;;;;;;;8.48;4.10;;;;;;;3.23;100.00;96374.38;4999535;28;20527;-69
2024/03/12 02:15:12;;;;;;;8.43;4.47;;;;;;;3.18;100.00;96374.56;4995172;28;20050;-68
2024/03/12 02:17:40;;;;;;;6.05;4.28;;;;;;;3.24;100.00;96380.56;5007265;28;20053;-69
2024/03/12 02:20:10;;;;;;;11.98;5.10;;;;;;;3.22;100.00;96385.53;4995728;28;20038;-69
2024/03/12 02:22:38;;;;;;;5.38;4.10;;;;;;;3.24;100.00;96381.38;4999832;28;20096;-69
2024/03/12 02:25:10;;;;;;;7.63;4.05;;;;;;;3.16;100.00;96389.53;4995059;28;20516;-70
2024/03/12 02:27:37;;;;;;;7.00;4.25;;;;;;;3.19;100.00;96386.97;4999746;28;20054;-69
2024/03/12 02:30:04;;;;;;;8.90;4.90;;;;;;;3.12;100.00;96388.63;4997656;28;20030;-70
2024/03/12 02:32:30;;;;;;;6.18;4.53;;;;;;;3.04;100.00;96392.91;5001224;28;20053;-69
2024/03/12 02:34:56;;;;;;;8.18;4.25;;;;;;;2.94;100.00;96396.78;5000505;28;20038;-70
2024/03/12 02:37:21;;;;;;;6.82;4.10;;;;;;;2.86;100.00;96395.72;4995476;28;20061;-69
2024/03/12 02:39:46;;;;;;;7.45;3.55;;;;;;;2.80;100.00;96396.22;4999489;28;20042;-69
2024/03/12 02:42:12;;;;;;;5.78;3.88;;;;;;;2.75;100.00;96396.38;4995156;28;20499;-69
2024/03/12 02:44:37;;;;;;;7.80;4.00;;;;;;;2.78;100.00;96398.44;4998997;28;20057;-66
2024/03/12 02:47:03;;;;;;;5.93;4.18;;;;;;;2.65;100.00;96395.63;4996725;28;20046;-67
2024/03/12 02:49:29;;;;;;;8.50;4.50;;;;;;;2.57;100.00;96398.34;4982435;28;20049;-67
2024/03/12 02:51:55;;;;;;;6.18;4.43;;;;;;;2.41;100.00;96401.56;5000036;28;20409;-67
2024/03/12 02:54:26;;;;;;;7.40;5.07;;;;;;;2.29;100.00;96401.41;4998809;28;20046;-67
2024/03/12 02:56:53;;;;;;;6.80;5.05;;;;;;;2.16;100.00;96400.47;5003572;28;20080;-67
2024/03/12 02:59:19;;;;;;;9.07;5.50;;;;;;;2.21;100.00;96408.41;4995334;28;20026;-67
2024/03/12 03:01:44;;;;;;;6.70;4.47;;;;;;;2.15;100.00;96407.00;4996790;28;20104;-67
2024/03/12 03:04:10;;;;;;;8.75;5.63;;;;;;;2.07;100.00;96410.47;5001431;28;20037;-68
2024/03/12 03:06:35;;;;;;;8.18;5.40;;;;;;;2.01;100.00;96409.06;5015163;28;20042;-68
2024/03/12 03:09:05;;;;;;;7.40;5.03;;;;;;;1.98;100.00;96401.59;5015542;28;20073;-69
2024/03/12 03:11:31;;;;;;;9.10;6.10;;;;;;;2.12;100.00;96413.03;4999815;28;20034;-68
2024/03/12 03:13:56;;;;;;;9.95;5.55;;;;;;;2.21;100.00;96421.91;4999367;28;20041;-69
2024/03/12 03:16:22;;;;;;;9.13;5.95;;;;;;;2.19;100.00;96417.94;4976333;28;20639;-69
2024/03/12 03:18:47;;;;;;;14.15;9.10;;;;;;;2.29;100.00;96414.94;5006479;28;20053;-70
2024/03/12 03:21:14;;;;;;;20.48;13.65;;;;;;;2.35;100.00;96423.66;4996747;28;20068;-69
2024/03/12 03:23:41;;;;;;;11.77;7.50;;;;;;;2.20;100.00;96428.44;5000264;28;20042;-68
2024/03/12 03:26:07;;;;;;;8.07;5.80;;;;;;;2.17;100.00;96423.66;4993811;28;20384;-68
2024/03/12 03:28:33;;;;;;;10.80;6.57;;;;;;;2.17;100.00;96418.28;4999761;28;20187;-68
2024/03/12 03:30:59;;;;;;;7.15;5.20;;;;;;;2.17;100.00;96415.56;5000195;28;20045;-68
2024/03/12 03:33:27;;;;;;;8.13;5.97;;;;;;;2.05;100.00;96418.09;4991524;28;20489;-68
2024/03/12 03:35:53;;;;;;;6.30;5.38;;;;;;;2.02;100.00;96426.88;4998910;28;20057;-68
2024/03/12 03:38:19;;;;;;;9.38;6.03;;;;;;;1.97;100.00;96427.81;4973072;28;20030;-68
2024/03/12 03:40:45;;;;;;;7.93;5.38;;;;;;;1.93;100.00;96429.56;5001042;28;20103;-69
2024/03/12 03:43:11;;;;;;;8.35;5.47;;;;;;;1.94;100.00;96427.66;4958771;28;20030;-68
2024/03/12 03:45:36;;;;;;;10.48;5.22;;;;;;;2.01;100.00;96427.97;4999529;28;20065;-67
2024/03/12 03:48:02;;;;;;;7.00;4.72;;;;;;;1.98;100.00;96428.59;4997181;28;20233;-68
2024/03/12 03:50:27;;;;;;;8.52;5.38;;;;;;;1.95;100.00;96424.63;4997089;28;20068;-68
2024/03/12 03:52:53;;;;;;;6.63;4.68;;;;;;;2.00;100.00;96438.00;4997777;28;20188;-67
2024/03/12 03:55:23;;;;;;;6.30;4.85;;;;;;;1.79;100.00;96443.19;4990452;28;20038;-67
2024/03/12 03:57:52;;;;;;;8.27;4.20;;;;;;;1.69;100.00;96438.91;5001478;28;20050;-68
2024/03/12 04:00:23;;;;;;;7.78;4.88;;;;;;;1.49;100.00;96445.66;4980563;28;20038;-68
2024/03/12 04:02:49;;;;;;;7.88;5.00;;;;;;;1.63;100.00;96453.66;5001191;28;20045;-68
2024/03/12 04:05:14;;;;;;;9.57;4.32;;;;;;;1.74;100.00;96450.66;4980165;28;20033;-67
2024/03/12 04:07:40;;;;;;;11.63;4.43;;;;;;;1.74;100.00;96454.16;4984135;28;20100;-68
2024/03/12 04:10:10;;;;;;;5.03;4.20;;;;;;;1.78;100.00;96455.09;4997562;28;20034;-67
2024/03/12 04:12:46;;;;;;;7.10;4.65;;;;;;;1.78;100.00;96457.00;4995583;28;20038;-67
2024/03/12 04:15:12;;;;;;;9.10;4.32;;;;;;;1.64;100.00;96460.66;4996851;28;20073;-67
2024/03/12 04:17:38;;;;;;;6.47;4.13;;;;;;;1.61;100.00;96460.50;4984946;28;20045;-68
2024/03/12 04:20:10;;;;;;;11.60;4.60;;;;;;;1.59;100.00;96465.41;5003151;28;20033;-67
2024/03/12 04:22:39;;;;;;;9.18;4.70;;;;;;;1.53;100.00;96465.56;5004273;28;20477;-66
2024/03/12 04:25:07;;;;;;;5.07;3.25;;;;;;;1.40;100.00;96462.97;4982151;28;20159;-67
2024/03/12 04:27:36;;;;;;;6.82;4.43;;;;;;;1.18;100.00;96469.25;5002529;28;20056;-68
2024/03/12 04:30:04;;;;;;;7.82;4.45;;;;;;;1.00;100.00;96468.38;4985648;28;20101;-69
2024/03/12 04:32:30;;;;;;;8.82;5.20;;;;;;;0.82;100.00;96475.56;5004294;28;20579;-69
2024/03/12 04:34:55;;;;;;;7.82;4.72;;;;;;;0.67;100.00;96471.38;5001677;28;20045;-70
2024/03/12 04:37:22;;;;;;;7.30;5.07;;;;;;;0.54;100.00;96476.53;4994963;28;20054;-69
2024/03/12 04:39:48;;;;;;;8.15;5.43;;;;;;;0.53;100.00;96476.81;5007700;28;20738;-69
2024/03/12 04:42:13;;;;;;;11.63;5.95;;;;;;;0.60;100.00;96482.56;4996475;28;20421;-69
2024/03/12 04:44:39;;;;;;;9.50;6.47;;;;;;;0.69;100.00;96478.03;5000568;28;20044;-69
2024/03/12 04:47:04;;;;;;;10.02;5.47;;;;;;;0.85;100.00;96483.06;4996286;28;20048;-69
2024/03/12 04:49:30;;;;;;;10.05;5.10;;;;;;;1.09;100.00;96494.25;5000397;28;20066;-68
2024/03/12 04:51:55;;;;;;;9.05;5.40;;;;;;;1.21;100.00;96498.31;5000763;28;20045;-69
2024/03/12 04:54:21;;;;;;;8.90;5.43;;;;;;;1.24;100.00;96495.78;4996693;28;20049;-69
2024/03/12 04:56:47;;;;;;;8.95;5.10;;;;;;;1.37;100.00;96504.06;4976949;28;20042;-69
2024/03/12 04:59:14;;;;;;;10.50;6.32;;;;;;;1.39;100.00;96510.75;4978466;28;20038;-67
2024/03/12 05:01:45;;;;;;;11.05;5.47;;;;;;;1.26;100.00;96511.63;4998446;28;20048;-67
2024/03/12 05:04:14;;;;;;;9.77;6.10;;;;;;;1.22;100.00;96507.97;4997284;28;20538;-69
2024/03/12 05:06:40;;;;;;;7.95;5.22;;;;;;;1.04;100.00;96515.19;4983418;28;20041;-67
2024/03/12 05:09:06;;;;;;;10.88;6.60;;;;;;;0.92;100.00;96524.66;4977278;28;20100;-68
2024/03/12 05:11:41;;;;;;;14.40;7.30;;;;;;;0.98;100.00;96519.13;5001966;28;20038;-67
2024/03/12 05:14:07;;;;;;;13.35;7.95;;;;;;;1.05;100.00;96530.28;4988277;28;20037;-69
2024/03/12 05:16:33;;;;;;;14.65;7.78;;;;;;;1.12;100.00;96530.63;5001345;28;20041;-69
2024/03/12 05:18:59;;;;;;;13.13;7.25;;;;;;;1.13;100.00;96527.63;5002590;28;20061;-68
2024/03/12 05:21:26;;;;;;;12.32;6.88;;;;;;;1.21;100.00;96525.28;5011490;28;20049;-68
2024/03/12 05:23:53;;;;;;;10.75;6.55;;;;;;;1.20;100.00;96534.47;4983622;28;20392;-67
2024/03/12 05:26:21;;;;;;;8.40;6.40;;;;;;;1.38;100.00;96536.13;4996335;28;20030;-69
2024/03/12 05:28:47;;;;;;;9.75;6.32;;;;;;;1.47;100.00;96539.66;5000329;28;20072;-67
2024/03/12 05:31:21;;;;;;;10.48;7.07;;;;;;;1.45;100.00;96544.59;4977920;28;20029;-68
2024/03/12 05:33:50;;;;;;;12.18;7.32;;;;;;;1.53;100.00;96543.84;5000874;28;20053;-70
2024/03/12 05:36:20;;;;;;;9.70;6.90;;;;;;;1.65;100.00;96548.63;4995689;28;20489;-68
2024/03/12 05:38:55;;;;;;;12.38;8.85;;;;;;;1.75;100.00;96549.44;4975333;28;20038;-69
2024/03/12 05:41:25;;;;;;;12.77;8.75;;;;;;;1.80;100.00;96555.53;5010345;28;20033;-69
2024/03/12 05:48:07;;;;;;;15.90;10.32;;;;;;;2.07;100.00;96559.06;4999625;28;20053;-68
2024/03/12 05:49:35;;;;;;;23.00;13.38;;;;;;;2.21;100.00;96569.75;4999648;28;20042;-67
2024/03/12 05:52:00;;;;;;;22.00;11.90;;;;;;;2.34;100.00;96568.84;4991786;28;20093;-69
2024/03/12 05:54:25;;;;;;;13.63;9.68;;;;;;;2.45;100.00;96569.31;4996552;28;20117;-69
2024/03/12 05:56:52;;;;;;;13.20;8.50;;;;;;;2.60;100.00;96568.06;4999366;28;20048;-68
2024/03/12 05:59:21;;;;;;;15.50;7.93;;;;;;;2.65;100.00;96574.09;4993539;28;20042;-72
2024/03/12 06:01:47;;;;;;;17.20;8.68;;;;;;;2.81;100.00;96573.59;5000298;28;20064;-69
2024/03/12 06:04:13;;;;;;;22.90;8.32;;;;;;;2.77;100.00;96570.72;4997367;28;20517;-68
2024/03/12 06:06:38;;;;;;;9.68;6.15;;;;;;;2.91;100.00;96573.28;5002490;28;20406;-70
2024/03/12 06:09:05;;;;;;;14.15;8.70;;;;;;;2.99;100.00;96577.91;4997243;28;20038;-71
2024/03/12 06:11:31;;;;;;;15.55;6.97;;;;;;;2.94;100.00;96567.22;5010144;28;20033;-72
2024/03/12 06:13:57;;;;;;;13.55;6.70;;;;;;;3.08;100.00;96572.47;5021994;28;20128;-72
2024/03/12 06:16:23;;;;;;;9.18;5.43;;;;;;;3.17;100.00;96573.25;5015707;28;20052;-68
2024/03/12 06:18:48;;;;;;;9.85;5.63;;;;;;;3.23;100.00;96574.66;5020751;28;20042;-69
2024/03/12 06:21:15;;;;;;;9.43;6.00;;;;;;;3.25;100.00;96585.16;5005864;28;20109;-68
2024/03/12 06:23:41;;;;;;;9.55;5.35;;;;;;;3.36;100.00;96586.41;5005474;28;20045;-70
2024/03/12 06:26:06;;;;;;;12.80;6.03;;;;;;;3.50;100.00;96583.50;5004742;28;20114;-69
2024/03/12 06:28:32;;;;;;;9.32;5.05;;;;;;;3.54;100.00;96584.44;5002996;28;20137;-69
2024/03/12 06:30:57;;;;;;;9.23;5.95;;;;;;;3.55;100.00;96582.56;4999191;28;20061;-69
2024/03/12 06:33:23;;;;;;;10.75;6.63;;;;;;;3.64;100.00;96583.31;4974956;28;20041;-69
2024/03/12 06:35:48;;;;;;;11.25;6.05;;;;;;;3.75;100.00;96591.88;4999607;28;20501;-70
2024/03/12 06:38:15;;;;;;;11.43;6.90;;;;;;;3.66;100.00;96591.13;4993184;28;20033;-68
2024/03/12 06:40:41;;;;;;;30.70;8.90;;;;;;;3.54;100.00;96597.22;4999623;28;20516;-67
2024/03/12 06:43:09;;;;;;;19.08;10.40;;;;;;;3.24;100.00;96597.09;4993848;28;20038;-74
2024/03/12 06:45:35;;;;;;;17.83;9.40;;;;;;;3.19;100.00;96592.66;4999536;28;20053;-70
2024/03/12 06:48:01;;;;;;;15.13;7.30;;;;;;;3.23;100.00;96598.22;4999388;28;20046;-69
2024/03/12 06:50:26;;;;;;;11.48;7.43;;;;;;;3.23;100.00;96604.44;4994936;28;20560;-65
2024/03/12 06:52:53;;;;;;;10.85;6.65;;;;;;;3.30;100.00;96608.59;4998885;28;20053;-65
2024/03/12 06:55:23;;;;;;;11.10;7.13;;;;;;;3.52;100.00;96608.34;4994969;28;20428;-68
2024/03/12 06:57:52;;;;;;;16.63;8.27;;;;;;;3.78;100.00;96604.75;4999549;28;20037;-69
2024/03/12 07:00:32;;;;;;;22.90;13.85;;;;;;;4.00;100.00;96612.66;4993749;28;20532;-67
2024/03/12 07:02:58;;;;;;;18.55;9.65;;;;;;;4.33;100.00;96620.13;4980063;28;20042;-68
2024/03/12 07:05:29;;;;;;;25.23;12.95;;;;;;;4.65;100.00;96620.59;4994901;28;20125;-68
2024/03/12 07:07:54;;;;;;;11.43;6.43;;;;;;;4.96;100.00;96612.03;4999566;28;20049;-67
2024/03/12 07:10:22;;;;;;;25.08;8.70;;;;;;;5.00;100.00;96611.38;4995088;28;20532;-66
2024/03/12 07:12:48;;;;;;;11.88;7.47;;;;;;;4.91;100.00;96623.09;4998405;28;20057;-68
2024/03/12 07:15:14;;;;;;;10.77;5.90;;;;;;;4.89;100.00;96629.97;4993777;28;20389;-70
2024/03/12 07:17:39;;;;;;;11.73;5.85;;;;;;;4.88;100.00;96631.09;4999671;28;20408;-68
2024/03/12 07:20:10;;;;;;;12.57;6.07;;;;;;;4.90;100.00;96635.09;4994659;28;20046;-68
2024/03/12 07:22:37;;;;;;;12.13;7.53;;;;;;;4.89;100.00;96640.84;5003345;28;20549;-69
2024/03/12 07:25:05;;;;;;;12.15;6.80;;;;;;;5.04;100.00;96631.28;4983956;28;20042;-69
2024/03/12 07:27:31;;;;;;;15.15;5.70;;;;;;;5.19;100.00;96638.84;4998238;28;20485;-69
2024/03/12 07:29:58;;;;;;;10.00;6.18;;;;;;;5.29;100.00;96645.78;4982975;28;20123;-69
2024/03/12 07:32:24;;;;;;;8.98;5.53;;;;;;;5.39;100.00;96636.44;4995944;28;20070;-68
2024/03/12 07:34:49;;;;;;;11.52;4.70;;;;;;;5.36;100.00;96643.31;5002936;28;20041;-68
2024/03/12 07:37:17;;;;;;;23.52;5.70;;;;;;;5.72;100.00;96639.13;4996698;28;20050;-69
2024/03/12 07:39:43;;;;;;;10.88;4.85;;;;;;;5.89;100.00;96644.38;5003287;28;20032;-68
2024/03/12 07:42:18;;;;;;;7.50;3.75;;;;;;;5.89;100.00;96640.88;4990038;28;20048;-68
2024/03/12 07:44:47;;;;;;;6.47;3.90;;;;;;;6.03;100.00;96643.28;5002914;28;20133;-70
2024/03/12 07:47:14;;;;;;;13.90;4.07;;;;;;;6.02;100.00;96637.06;4997729;28;20069;-68
2024/03/12 07:49:41;;;;;;;6.10;3.65;;;;;;;6.09;100.00;96637.28;5002938;28;20127;-68
2024/03/12 07:52:09;;;;;;;5.40;3.38;;;;;;;6.19;100.00;96637.97;5004810;28;20362;-67
2024/03/12 07:54:34;;;;;;;9.75;3.40;;;;;;;5.98;100.00;96638.06;5004208;28;20046;-67
2024/03/12 07:57:00;;;;;;;9.23;3.58;;;;;;;5.92;100.00;96643.72;5001723;28;20044;-68
2024/03/12 07:59:28;;;;;;;7.55;4.25;;;;;;;6.02;100.00;96650.66;4979781;28;20038;-67
2024/03/12 08:01:54;;;;;;;6.07;3.53;;;;;;;5.98;100.00;96655.19;5001511;28;20038;-68
2024/03/12 08:04:20;;;;;;;6.57;4.07;;;;;;;6.00;100.00;96642.03;4994943;28;20037;-67
2024/03/12 08:06:45;;;;;;;6.40;4.18;;;;;;;6.15;100.00;96642.50;4973903;28;20042;-68
2024/03/12 08:09:12;;;;;;;8.38;3.72;;;;;;;6.24;100.00;96645.91;4997928;28;20050;-68
2024/03/12 08:11:38;;;;;;;8.10;4.00;;;;;;;6.17;100.00;96645.69;5001730;28;20034;-68
2024/03/12 08:14:03;;;;;;;6.20;3.58;;;;;;;6.26;100.00;96644.44;4997034;28;20045;-70
2024/03/12 08:16:31;;;;;;;5.68;3.67;;;;;;;6.34;100.00;96647.38;5001919;28;20128;-68
2024/03/12 08:18:58;;;;;;;8.70;3.80;;;;;;;6.34;100.00;96647.38;5016944;28;20053;-68
2024/03/12 08:21:24;;;;;;;7.45;3.80;;;;;;;6.43;100.00;96659.75;5004815;28;20485;-68
2024/03/12 08:23:50;;;;;;;7.50;3.90;;;;;;;6.50;100.00;96656.47;5001592;28;20080;-67
2024/03/12 08:26:16;;;;;;;8.18;3.53;;;;;;;6.53;100.00;96652.25;5002982;28;20038;-66
2024/03/12 08:28:42;;;;;;;8.07;3.58;;;;;;;6.52;100.00;96662.34;5003402;28;20042;-68
2024/03/12 08:31:07;;;;;;;10.15;3.95;;;;;;;6.65;100.00;96665.84;4996266;28;20515;-67
2024/03/12 08:33:33;;;;;;;8.05;3.90;;;;;;;6.67;100.00;96658.16;5001645;28;20179;-66
2024/03/12 08:35:58;;;;;;;8.23;3.47;;;;;;;6.69;100.00;96666.75;5001547;28;20102;-66
2024/03/12 08:38:23;;;;;;;6.80;3.25;;;;;;;6.63;100.00;96671.63;4997592;28;20049;-67
2024/03/12 08:40:49;;;;;;;7.30;3.83;;;;;;;6.64;100.00;96677.88;5001517;28;20440;-66
2024/03/12 08:43:15;;;;;;;5.28;3.78;;;;;;;6.78;100.00;96674.81;4997232;28;20033;-67
2024/03/12 08:45:40;;;;;;;7.22;3.53;;;;;;;6.87;100.00;96675.47;4999508;28;20388;-67
2024/03/12 08:48:06;;;;;;;9.00;3.42;;;;;;;6.85;100.00;96669.56;4996403;28;20057;-66
2024/03/12 08:50:33;;;;;;;7.32;3.40;;;;;;;6.89;100.00;96678.63;5001997;28;20799;-67
2024/03/12 08:52:58;;;;;;;6.47;3.65;;;;;;;6.76;100.00;96682.53;5001625;28;20089;-68
2024/03/12 08:55:24;;;;;;;5.22;3.63;;;;;;;6.73;100.00;96677.75;4979551;28;20121;-66
2024/03/12 08:57:51;;;;;;;13.18;3.40;;;;;;;6.84;100.00;96681.59;5000755;28;20192;-66
2024/03/12 09:00:18;;;;;;;5.97;3.60;;;;;;;6.97;100.00;96685.91;4995733;28;20511;-67
2024/03/12 09:02:44;;;;;;;4.63;3.35;;;;;;;6.76;100.00;96688.75;4983619;28;20400;-66
2024/03/12 09:05:09;;;;;;;5.72;3.65;;;;;;;6.82;100.00;96692.81;4978477;28;20038;-66
2024/03/12 09:07:38;;;;;;;4.97;3.63;;;;;;;7.02;100.00;96693.03;5000521;28;20038;-67
2024/03/12 09:10:11;;;;;;;7.05;3.72;;;;;;;7.00;100.00;96679.75;4998268;28;20398;-69
2024/03/12 09:12:36;;;;;;;7.05;3.67;;;;;;;6.88;100.00;96686.03;5006978;28;20084;-68
2024/03/12 09:15:03;;;;;;;8.48;4.03;;;;;;;7.08;100.00;96689.72;5005683;28;20056;-71
2024/03/12 09:17:28;;;;;;;5.85;3.72;;;;;;;7.34;100.00;96691.25;5001092;28;20125;-68
2024/03/12 09:19:54;;;;;;;7.25;3.95;;;;;;;7.04;100.00;96693.47;5000115;28;20053;-66
2024/03/12 09:22:20;;;;;;;6.15;3.80;;;;;;;7.01;100.00;96699.63;4994519;28;20038;-67
2024/03/12 09:24:45;;;;;;;10.90;4.57;;;;;;;7.01;100.00;96697.69;5002009;28;20129;-67
2024/03/12 09:27:11;;;;;;;5.78;3.80;;;;;;;7.06;100.00;96691.22;5001661;28;20509;-66
2024/03/12 09:29:37;;;;;;;4.05;3.08;;;;;;;7.14;100.00;96697.66;5013444;28;20157;-69
2024/03/12 09:32:03;;;;;;;5.70;3.40;;;;;;;7.26;100.00;96695.69;4992016;28;20038;-70
2024/03/12 09:34:30;;;;;;;4.60;3.30;;;;;;;7.44;100.00;96698.94;5003771;28;20117;-67
2024/03/12 09:36:55;;;;;;;5.03;3.13;;;;;;;7.64;100.00;96691.69;5001986;28;20072;-69
2024/03/12 09:39:24;;;;;;;5.22;2.60;;;;;;;7.72;100.00;96697.34;5014362;28;20078;-68
2024/03/12 09:41:53;;;;;;;4.60;3.00;;;;;;;7.95;100.00;96708.47;5019040;28;20046;-68
2024/03/12 09:44:21;;;;;;;3.97;2.50;;;;;;;8.14;100.00;96700.44;4998164;28;20060;-66
2024/03/12 09:46:47;;;;;;;4.35;2.40;;;;;;;8.14;100.00;96708.59;5001549;28;20045;-68
2024/03/12 09:49:18;;;;;;;5.15;2.67;;;;;;;7.98;100.00;96710.53;4991426;28;20066;-67
2024/03/12 09:51:44;;;;;;;3.58;2.67;;;;;;;7.88;100.00;96711.03;5000247;28;20034;-66
2024/03/12 09:54:11;;;;;;;8.85;3.28;;;;;;;7.86;100.00;96714.09;4995001;28;20117;-67
2024/03/12 09:56:39;;;;;;;4.30;2.90;;;;;;;7.93;100.00;96713.50;4991209;28;20062;-66
2024/03/12 09:59:07;;;;;;;5.53;2.95;;;;;;;7.92;100.00;96722.81;4987197;28;20030;-67
2024/03/12 10:01:33;;;;;;;5.00;3.10;;;;;;;7.97;100.00;96720.63;4998666;28;20045;-66
2024/03/12 10:03:59;;;;;;;6.53;3.40;;;;;;;8.18;100.00;96716.88;4999457;28;20520;-66
2024/03/12 10:06:26;;;;;;;7.07;2.75;;;;;;;8.11;100.00;96719.44;4994751;28;20046;-67
2024/03/12 10:09:01;;;;;;;5.32;2.80;;;;;;;8.07;100.00;96730.25;4999090;28;20069;-66
2024/03/12 10:11:26;;;;;;;4.53;2.97;;;;;;;7.78;100.00;96724.03;5001545;28;20115;-69
2024/03/12 10:13:58;;;;;;;4.07;2.65;;;;;;;7.89;100.00;96727.03;5002062;28;20085;-67
2024/03/12 10:16:30;;;;;;;5.20;3.10;;;;;;;7.90;100.00;96716.91;4994444;28;20050;-68
2024/03/12 10:19:15;;;;;;;4.72;3.03;;;;;;;7.98;100.00;96724.94;4999182;28;20041;-67
2024/03/12 10:21:41;;;;;;;5.50;2.90;;;;;;;7.87;100.00;96723.88;4999395;28;20505;-67
2024/03/12 10:24:11;;;;;;;8.02;2.95;;;;;;;8.35;100.00;96724.72;4994526;28;20108;-68
2024/03/12 10:26:36;;;;;;;5.93;2.40;;;;;;;8.76;100.00;96730.81;4981519;28;20154;-68
2024/03/12 10:29:13;;;;;;;3.58;2.30;;;;;;;9.19;100.00;96733.75;4997102;28;20460;-71
2024/03/12 10:31:45;;;;;;;4.93;2.30;;;;;;;9.21;100.00;96730.66;4984180;28;20064;-69
2024/03/12 10:34:17;;;;;;;6.32;2.65;;;;;;;8.97;100.00;96732.50;4989120;28;20035;-67
2024/03/12 10:36:44;;;;;;;7.45;2.60;;;;;;;9.37;100.00;96732.19;4994484;28;20033;-66
2024/03/12 10:39:23;;;;;;;5.05;2.47;;;;;;;9.07;100.00;96745.56;4998442;28;20069;-66
2024/03/12 10:41:55;;;;;;;3.78;2.40;;;;;;;9.18;100.00;96737.63;4998588;28;20061;-67
2024/03/12 10:44:20;;;;;;;3.80;2.05;;;;;;;8.96;100.00;96734.41;4987196;28;21334;-66
2024/03/12 10:46:47;;;;;;;4.60;2.53;;;;;;;8.93;100.00;96735.13;4974311;28;20038;-67
2024/03/12 10:49:15;;;;;;;3.67;2.30;;;;;;;8.61;100.00;96735.16;4994703;28;20053;-66
2024/03/12 10:51:45;;;;;;;4.18;2.42;;;;;;;8.23;100.00;96735.72;4999192;28;20041;-66
2024/03/12 10:54:16;;;;;;;4.45;2.42;;;;;;;8.38;100.00;96734.94;4996367;28;20497;-67
2024/03/12 10:56:45;;;;;;;3.67;2.20;;;;;;;8.33;100.00;96743.38;5006395;28;20050;-68
2024/03/12 10:59:11;;;;;;;3.90;2.15;;;;;;;8.38;100.00;96745.06;4994141;28;20033;-67
2024/03/12 11:01:39;;;;;;;4.65;2.35;;;;;;;8.55;100.00;96741.22;4998428;28;20069;-67
2024/03/12 11:04:05;;;;;;;7.60;2.88;;;;;;;8.82;100.00;96744.22;4979660;28;20042;-67
2024/03/12 11:06:35;;;;;;;4.15;2.80;;;;;;;8.81;100.00;96751.63;5003600;28;20046;-67
2024/03/12 11:09:01;;;;;;;4.53;2.80;;;;;;;8.90;100.00;96745.97;5002440;28;20448;-69
2024/03/12 11:11:28;;;;;;;5.40;2.97;;;;;;;8.95;100.00;96743.75;4999047;28;20038;-69
2024/03/12 11:13:55;;;;;;;5.60;2.72;;;;;;;9.51;100.00;96742.66;4968138;28;20048;-66
2024/03/12 11:16:20;;;;;;;11.73;2.80;;;;;;;10.32;100.00;96741.13;4998326;28;20136;-67
2024/03/12 11:18:49;;;;;;;5.72;2.38;;;;;;;10.56;100.00;96756.41;5000102;28;20121;-68
2024/03/12 11:21:30;;;;;;;3.97;2.70;;;;;;;10.75;100.00;96760.22;4979427;28;20038;-67
2024/03/12 11:23:57;;;;;;;6.38;2.70;;;;;;;10.36;100.00;96752.91;5002038;28;20061;-68
2024/03/12 11:26:34;;;;;;;5.50;2.90;;;;;;;9.77;100.00;96750.19;4997133;28;20436;-67
2024/03/12 11:29:00;;;;;;;4.75;2.63;;;;;;;9.62;100.00;96748.34;5003006;28;20038;-68
2024/03/12 11:31:36;;;;;;;4.85;3.03;;;;;;;9.61;100.00;96743.22;4998846;28;20160;-68
2024/03/12 11:34:02;;;;;;;5.10;2.80;;;;;;;9.28;100.00;96734.34;4996593;28;20046;-69